Time;durP1;ratioP1;P1;durP2;ratioP2;P2;SDS_P1;SDS_P2;PMS_P1;PMS_P2;Temp;Humidity;BMP_temperature;BMP_pressure;BME280_temperature;BME280_humidity;BME280_pressure;Samples;Min_cycle;Max_cycle;Signal;HPM_P1;HPM_P2
2022/02/20 00:00:43;;;;;;;13.88;3.88;;;4.10;99.90;;;;;;5051242;28;20036;-55
2022/02/20 00:03:10;;;;;;;12.50;4.07;;;4.10;99.90;;;;;;5051340;28;20048;-58
2022/02/20 00:05:36;;;;;;;14.38;3.97;;;4.10;99.90;;;;;;5029336;28;20430;-56
2022/02/20 00:08:03;;;;;;;15.02;4.38;;;4.20;99.90;;;;;;5031729;28;20053;-57
2022/02/20 00:10:28;;;;;;;11.75;3.58;;;4.20;99.90;;;;;;5049787;28;20061;-60
2022/02/20 00:12:54;;;;;;;11.32;4.40;;;4.20;99.90;;;;;;5032408;28;20068;-57
2022/02/20 00:15:20;;;;;;;11.73;4.03;;;4.10;99.90;;;;;;5047628;28;20029;-58
2022/02/20 00:17:50;;;;;;;9.00;3.35;;;4.10;99.90;;;;;;5049351;28;20047;-56
2022/02/20 00:20:15;;;;;;;10.10;3.40;;;4.10;99.90;;;;;;5043822;28;20432;-58
2022/02/20 00:22:41;;;;;;;15.15;4.63;;;4.10;99.90;;;;;;5041356;28;20124;-57
2022/02/20 00:25:07;;;;;;;11.93;3.83;;;4.10;99.90;;;;;;5048603;28;20039;-57
2022/02/20 00:27:33;;;;;;;10.18;3.70;;;4.10;99.90;;;;;;5049359;28;20021;-56
2022/02/20 00:29:59;;;;;;;14.55;4.30;;;4.20;99.90;;;;;;5050227;28;20040;-56
2022/02/20 00:32:25;;;;;;;13.05;4.15;;;4.30;99.90;;;;;;5043052;28;20053;-61
2022/02/20 00:34:50;;;;;;;10.00;3.85;;;4.20;99.90;;;;;;5049134;28;20064;-58
2022/02/20 00:37:16;;;;;;;9.02;3.80;;;4.20;99.90;;;;;;5042762;28;20459;-58
2022/02/20 00:39:42;;;;;;;9.95;3.78;;;4.10;99.90;;;;;;5049229;28;20386;-59
2022/02/20 00:42:07;;;;;;;6.75;3.50;;;4.10;99.90;;;;;;5050626;28;20044;-56
2022/02/20 00:44:33;;;;;;;5.78;3.20;;;4.10;99.90;;;;;;5031398;28;20025;-56
2022/02/20 00:46:58;;;;;;;5.07;3.25;;;4.10;99.90;;;;;;5045568;28;20544;-55
2022/02/20 00:49:24;;;;;;;11.52;3.58;;;4.00;99.90;;;;;;5050804;28;20136;-62
2022/02/20 00:51:50;;;;;;;8.07;3.25;;;4.10;99.90;;;;;;5048362;28;20064;-62
2022/02/20 00:54:15;;;;;;;6.55;2.47;;;4.00;99.90;;;;;;5050270;28;20523;-63
2022/02/20 00:56:41;;;;;;;7.15;2.85;;;4.00;99.90;;;;;;5046951;28;20043;-62
2022/02/20 00:59:07;;;;;;;3.97;2.10;;;4.00;99.90;;;;;;5051133;28;20040;-62
2022/02/20 01:01:33;;;;;;;3.38;2.13;;;4.00;99.90;;;;;;5049193;28;20059;-56
2022/02/20 01:03:59;;;;;;;4.38;1.88;;;4.00;99.90;;;;;;5042489;28;20053;-55
2022/02/20 01:06:26;;;;;;;3.72;2.10;;;4.00;99.90;;;;;;5046288;28;20095;-62
2022/02/20 01:08:52;;;;;;;4.78;1.75;;;4.00;99.90;;;;;;5050011;28;20033;-62
2022/02/20 01:11:18;;;;;;;5.30;1.80;;;3.90;99.90;;;;;;5043424;28;20061;-62
2022/02/20 01:13:45;;;;;;;4.90;1.73;;;3.90;99.90;;;;;;5047403;28;20032;-63
2022/02/20 01:16:11;;;;;;;4.40;2.00;;;3.80;99.90;;;;;;5048651;28;20020;-63
2022/02/20 01:18:36;;;;;;;2.20;1.73;;;3.80;99.90;;;;;;5049336;28;20029;-60
2022/02/20 01:21:02;;;;;;;2.75;1.92;;;3.80;99.90;;;;;;5049227;28;20020;-62
2022/02/20 01:23:28;;;;;;;8.45;3.03;;;3.80;99.90;;;;;;5048470;28;20040;-61
2022/02/20 01:25:54;;;;;;;4.82;1.80;;;3.80;99.90;;;;;;5040942;28;20090;-62
2022/02/20 01:28:19;;;;;;;5.55;2.50;;;3.80;99.90;;;;;;5047609;28;20029;-62
2022/02/20 01:30:46;;;;;;;6.65;2.17;;;3.80;99.90;;;;;;5049696;28;20036;-62
2022/02/20 01:33:11;;;;;;;5.70;2.80;;;3.80;99.90;;;;;;5045727;28;20029;-62
2022/02/20 01:35:37;;;;;;;3.92;2.63;;;3.90;99.90;;;;;;5048008;28;20395;-60
2022/02/20 01:38:03;;;;;;;8.10;3.83;;;3.90;99.90;;;;;;5042233;28;20029;-62
2022/02/20 01:40:30;;;;;;;5.18;3.58;;;4.00;99.90;;;;;;5031519;28;20029;-63
2022/02/20 01:43:00;;;;;;;6.88;3.88;;;4.00;99.90;;;;;;5046071;28;20068;-60
2022/02/20 01:45:26;;;;;;;8.05;4.25;;;4.00;99.90;;;;;;5048813;28;20033;-64
2022/02/20 01:47:52;;;;;;;6.95;3.97;;;4.00;99.90;;;;;;5045572;28;20049;-62
2022/02/20 01:50:18;;;;;;;8.73;3.70;;;3.90;99.90;;;;;;5049522;28;20029;-55
2022/02/20 01:52:45;;;;;;;8.88;3.15;;;3.90;99.90;;;;;;5046733;28;20036;-58
2022/02/20 01:55:12;;;;;;;4.68;2.97;;;3.90;99.90;;;;;;5042185;28;20486;-56
2022/02/20 01:57:40;;;;;;;4.72;3.08;;;3.80;99.90;;;;;;5045646;28;20398;-55
2022/02/20 02:00:13;;;;;;;4.13;2.38;;;3.80;99.90;;;;;;5049114;28;20452;-56
2022/02/20 02:02:39;;;;;;;4.03;3.00;;;3.80;99.90;;;;;;5047435;28;20045;-52
2022/02/20 02:05:06;;;;;;;6.28;3.25;;;3.80;99.90;;;;;;5041171;28;20463;-53
2022/02/20 02:07:32;;;;;;;4.75;2.90;;;3.80;99.90;;;;;;5047917;28;20025;-61
2022/02/20 02:09:57;;;;;;;4.60;2.70;;;3.80;99.90;;;;;;5041030;28;20036;-52
2022/02/20 02:12:23;;;;;;;6.32;2.80;;;3.80;99.90;;;;;;5047818;28;20435;-54
2022/02/20 02:15:00;;;;;;;8.07;2.92;;;3.70;99.90;;;;;;5040324;28;20033;-52
2022/02/20 02:17:26;;;;;;;6.82;3.90;;;3.80;99.90;;;;;;5048078;28;20021;-55
2022/02/20 02:19:52;;;;;;;5.65;3.53;;;3.70;99.90;;;;;;5041024;28;20119;-52
2022/02/20 02:22:28;;;;;;;5.38;3.13;;;3.70;99.90;;;;;;5042717;28;20554;-54
2022/02/20 02:24:56;;;;;;;6.80;3.38;;;3.70;99.90;;;;;;5043963;28;20140;-54
2022/02/20 02:27:23;;;;;;;6.10;3.72;;;3.80;99.90;;;;;;5023620;28;20048;-51
2022/02/20 02:29:49;;;;;;;8.90;3.80;;;3.80;99.90;;;;;;5029769;28;20569;-53
2022/02/20 02:32:15;;;;;;;8.05;3.60;;;3.80;99.90;;;;;;5043714;28;20041;-56
2022/02/20 02:34:43;;;;;;;6.53;3.80;;;3.80;99.90;;;;;;5045305;28;20036;-61
2022/02/20 02:37:09;;;;;;;5.53;3.55;;;3.80;99.90;;;;;;5048494;28;20083;-61
2022/02/20 02:39:35;;;;;;;8.10;4.38;;;3.70;99.90;;;;;;5048500;28;20508;-61
2022/02/20 02:42:01;;;;;;;11.93;4.65;;;3.80;99.90;;;;;;5047706;28;20064;-62
2022/02/20 02:44:27;;;;;;;8.02;4.60;;;3.80;99.90;;;;;;5047908;28;20029;-62
2022/02/20 02:46:53;;;;;;;6.90;5.43;;;3.70;99.90;;;;;;5047746;28;20029;-63
2022/02/20 02:49:19;;;;;;;7.50;5.13;;;3.70;99.90;;;;;;5047734;28;20029;-61
2022/02/20 02:51:44;;;;;;;10.32;6.30;;;3.70;99.90;;;;;;5047557;28;20502;-63
2022/02/20 02:54:12;;;;;;;9.70;6.47;;;3.60;99.90;;;;;;5050597;28;20186;-63
2022/02/20 02:56:38;;;;;;;9.70;6.15;;;3.60;99.90;;;;;;5030969;28;20029;-62
2022/02/20 02:59:05;;;;;;;12.27;6.63;;;3.50;99.90;;;;;;5051627;28;20107;-62
2022/02/20 03:01:31;;;;;;;10.77;7.10;;;3.50;99.90;;;;;;5044418;28;20108;-62
2022/02/20 03:03:57;;;;;;;12.15;7.20;;;3.50;99.90;;;;;;5038465;28;20033;-62
2022/02/20 03:06:25;;;;;;;12.40;7.53;;;3.60;99.90;;;;;;5052102;28;20032;-61
2022/02/20 03:08:51;;;;;;;12.13;7.85;;;3.60;99.90;;;;;;5049827;28;20045;-62
2022/02/20 03:11:18;;;;;;;14.98;7.38;;;3.60;99.90;;;;;;5052437;28;20493;-61
2022/02/20 03:13:44;;;;;;;14.15;8.75;;;3.60;99.90;;;;;;5049905;28;20071;-61
2022/02/20 03:16:09;;;;;;;14.27;9.60;;;3.60;99.90;;;;;;5051379;28;20021;-62
2022/02/20 03:18:36;;;;;;;16.77;8.90;;;3.70;99.90;;;;;;5050761;28;20506;-59
2022/02/20 03:21:04;;;;;;;16.40;9.45;;;3.70;99.90;;;;;;5050008;28;20486;-56
2022/02/20 03:23:30;;;;;;;15.18;9.18;;;3.70;99.90;;;;;;5051196;28;20078;-56
2022/02/20 03:25:56;;;;;;;14.93;9.27;;;3.70;99.90;;;;;;5050716;28;20029;-56
2022/02/20 03:28:22;;;;;;;16.75;10.82;;;3.70;99.90;;;;;;5038054;28;20491;-58
2022/02/20 03:30:48;;;;;;;18.48;10.45;;;3.70;99.90;;;;;;5042369;28;20521;-59
2022/02/20 03:33:14;;;;;;;16.30;11.02;;;3.70;99.90;;;;;;5050932;28;20033;-56
2022/02/20 03:35:40;;;;;;;15.35;10.57;;;3.70;99.90;;;;;;5032980;28;20033;-54
2022/02/20 03:38:06;;;;;;;18.17;10.95;;;3.70;99.90;;;;;;5051404;28;20032;-57
2022/02/20 03:40:32;;;;;;;18.40;11.32;;;3.70;99.90;;;;;;5052427;28;20033;-57
2022/02/20 03:42:59;;;;;;;18.48;12.05;;;3.70;99.90;;;;;;5033632;28;20409;-52
2022/02/20 03:45:25;;;;;;;20.88;11.57;;;3.70;99.90;;;;;;5051637;28;20103;-54
2022/02/20 03:47:51;;;;;;;20.08;12.43;;;3.80;99.90;;;;;;5050803;28;20502;-54
2022/02/20 03:50:17;;;;;;;18.55;12.30;;;3.80;99.90;;;;;;5052112;28;20056;-51
2022/02/20 03:52:44;;;;;;;20.33;13.15;;;3.80;99.90;;;;;;5051240;28;20390;-53
2022/02/20 03:55:10;;;;;;;21.33;13.63;;;3.80;99.90;;;;;;5052206;28;20037;-56
2022/02/20 03:57:37;;;;;;;21.27;13.40;;;3.80;99.90;;;;;;5050867;28;20394;-54
2022/02/20 04:00:32;;;;;;;23.35;13.77;;;3.70;99.90;;;;;;5042742;28;20033;-55
2022/02/20 04:02:57;;;;;;;22.85;13.23;;;3.80;99.90;;;;;;5033890;28;20076;-52
2022/02/20 04:05:23;;;;;;;25.02;14.27;;;3.80;99.90;;;;;;5051622;28;20060;-53
2022/02/20 04:07:49;;;;;;;27.02;14.15;;;3.80;99.90;;;;;;5050608;28;20073;-55
2022/02/20 04:10:15;;;;;;;25.25;14.73;;;3.80;99.90;;;;;;5051771;28;20396;-52
2022/02/20 04:12:42;;;;;;;23.58;14.73;;;3.80;99.90;;;;;;5050177;28;20044;-55
2022/02/20 04:15:10;;;;;;;25.58;15.40;;;3.80;99.90;;;;;;5051154;28;20372;-61
2022/02/20 04:17:47;;;;;;;27.45;15.63;;;3.80;99.90;;;;;;5050370;28;20107;-52
2022/02/20 04:20:15;;;;;;;26.17;16.33;;;3.80;99.90;;;;;;5044871;28;20483;-57
2022/02/20 04:22:42;;;;;;;25.70;15.82;;;3.80;99.90;;;;;;5050159;28;20372;-54
2022/02/20 04:25:09;;;;;;;26.70;16.35;;;3.80;99.90;;;;;;5050982;28;20374;-53
2022/02/20 04:27:35;;;;;;;25.20;15.48;;;3.80;99.90;;;;;;5049957;28;20386;-54
2022/02/20 04:30:01;;;;;;;29.13;16.20;;;3.80;99.90;;;;;;5051293;28;20021;-53
2022/02/20 04:32:27;;;;;;;31.30;16.30;;;3.80;99.90;;;;;;5050156;28;20488;-59
2022/02/20 04:34:53;;;;;;;31.10;17.65;;;3.80;99.90;;;;;;5050306;28;20530;-60
2022/02/20 04:37:18;;;;;;;28.23;17.30;;;3.80;99.90;;;;;;5050580;28;20056;-61
2022/02/20 04:39:44;;;;;;;32.92;18.65;;;3.80;99.90;;;;;;5050512;28;20037;-60
2022/02/20 04:42:10;;;;;;;28.85;17.42;;;3.80;99.90;;;;;;5050300;28;20036;-61
2022/02/20 04:44:35;;;;;;;28.35;16.73;;;3.90;99.90;;;;;;5050893;28;20025;-60
2022/02/20 04:47:01;;;;;;;29.95;17.80;;;3.90;99.90;;;;;;5049521;28;20436;-61
2022/02/20 04:49:26;;;;;;;30.52;17.85;;;3.90;99.90;;;;;;5050867;28;20029;-61
2022/02/20 04:51:52;;;;;;;28.73;17.00;;;3.90;99.90;;;;;;5049711;28;20056;-61
2022/02/20 04:54:18;;;;;;;29.35;16.63;;;3.90;99.90;;;;;;5050433;28;20060;-61
2022/02/20 04:56:44;;;;;;;30.50;16.90;;;3.90;99.90;;;;;;5048900;28;20494;-60
2022/02/20 04:59:13;;;;;;;29.65;18.00;;;3.90;99.90;;;;;;5051154;28;20050;-60
2022/02/20 05:01:41;;;;;;;31.92;17.50;;;3.90;99.90;;;;;;5049317;28;20137;-55
2022/02/20 05:04:07;;;;;;;30.58;17.75;;;3.90;99.90;;;;;;5049273;28;20506;-53
2022/02/20 05:06:34;;;;;;;32.10;18.83;;;3.90;99.90;;;;;;5027424;28;20037;-61
2022/02/20 05:09:00;;;;;;;31.50;17.17;;;3.90;99.90;;;;;;5049273;28;20110;-61
2022/02/20 05:11:27;;;;;;;31.30;17.05;;;3.90;99.90;;;;;;5050857;28;20056;-61
2022/02/20 05:13:58;;;;;;;28.17;17.17;;;3.90;99.90;;;;;;5049225;28;20037;-61
2022/02/20 05:16:25;;;;;;;25.60;15.65;;;3.90;99.90;;;;;;5049977;28;20025;-60
2022/02/20 05:18:52;;;;;;;27.27;15.73;;;3.90;99.90;;;;;;5048832;28;20040;-61
2022/02/20 05:21:18;;;;;;;28.20;15.80;;;3.80;99.90;;;;;;5050339;28;20021;-54
2022/02/20 05:23:44;;;;;;;22.75;14.70;;;3.80;99.90;;;;;;5048958;28;20025;-52
2022/02/20 05:26:12;;;;;;;25.60;14.65;;;3.90;99.90;;;;;;5049858;28;20025;-54
2022/02/20 05:28:39;;;;;;;24.73;14.57;;;3.80;99.90;;;;;;5049036;28;20032;-57
2022/02/20 05:31:04;;;;;;;27.00;15.45;;;3.80;99.90;;;;;;5049183;28;20024;-55
2022/02/20 05:33:30;;;;;;;26.05;15.27;;;3.80;99.90;;;;;;5041538;28;20025;-60
2022/02/20 05:35:56;;;;;;;24.85;14.55;;;3.90;99.90;;;;;;5049131;28;20053;-61
2022/02/20 05:38:21;;;;;;;26.23;13.60;;;3.90;99.90;;;;;;5049262;28;20028;-60
2022/02/20 05:40:47;;;;;;;24.25;13.60;;;3.90;99.90;;;;;;5049581;28;20035;-60
2022/02/20 05:43:12;;;;;;;24.42;14.63;;;3.90;99.90;;;;;;5049259;28;20094;-59
2022/02/20 05:45:38;;;;;;;26.90;13.68;;;3.90;99.90;;;;;;5048832;28;20060;-61
2022/02/20 05:48:04;;;;;;;24.15;14.20;;;3.90;99.90;;;;;;5049021;28;20049;-61
2022/02/20 05:50:30;;;;;;;24.30;13.95;;;3.90;99.90;;;;;;5041368;28;20475;-58
2022/02/20 05:52:56;;;;;;;27.27;15.15;;;3.90;99.90;;;;;;5049141;28;20161;-61
2022/02/20 05:55:22;;;;;;;23.42;13.75;;;3.90;99.90;;;;;;5049167;28;20057;-61
2022/02/20 05:57:51;;;;;;;26.35;15.27;;;3.90;99.90;;;;;;5048246;28;20762;-61
2022/02/20 06:00:22;;;;;;;26.58;14.60;;;3.90;99.90;;;;;;5049525;28;20387;-61
2022/02/20 06:02:48;;;;;;;29.00;15.05;;;3.90;99.90;;;;;;5048500;28;20462;-61
2022/02/20 06:05:14;;;;;;;29.15;16.65;;;3.90;99.90;;;;;;5048862;28;20067;-61
2022/02/20 06:07:40;;;;;;;26.95;15.60;;;3.80;99.90;;;;;;5049619;28;20032;-60
2022/02/20 06:10:07;;;;;;;27.17;14.95;;;3.90;99.90;;;;;;5048688;28;20029;-60
2022/02/20 06:12:34;;;;;;;33.35;17.52;;;3.80;99.90;;;;;;5050004;28;20029;-58
2022/02/20 06:14:59;;;;;;;30.67;17.25;;;3.80;99.90;;;;;;5048402;28;20410;-60
2022/02/20 06:17:25;;;;;;;35.08;18.05;;;3.80;99.90;;;;;;5049468;28;20025;-60
2022/02/20 06:19:51;;;;;;;33.72;17.40;;;3.80;99.90;;;;;;5047939;28;20036;-59
2022/02/20 06:22:17;;;;;;;33.45;17.75;;;3.80;99.90;;;;;;5049644;28;20537;-60
2022/02/20 06:24:43;;;;;;;30.15;16.83;;;3.80;99.90;;;;;;5047619;28;20029;-60
2022/02/20 06:27:08;;;;;;;33.17;17.52;;;3.90;99.90;;;;;;5047646;28;20025;-60
2022/02/20 06:29:34;;;;;;;30.27;16.85;;;3.90;99.90;;;;;;5031266;28;20017;-60
2022/02/20 06:32:00;;;;;;;30.23;16.10;;;3.90;99.90;;;;;;5048623;28;20106;-56
2022/02/20 06:34:26;;;;;;;34.70;17.45;;;3.90;99.90;;;;;;5048844;28;20498;-57
2022/02/20 06:36:52;;;;;;;29.35;17.17;;;3.90;99.90;;;;;;5047669;28;20033;-58
2022/02/20 06:39:18;;;;;;;31.65;16.67;;;3.90;99.90;;;;;;5049660;28;20028;-55
2022/02/20 06:41:44;;;;;;;26.55;15.63;;;3.90;99.90;;;;;;5048318;28;20316;-51
2022/02/20 06:44:09;;;;;;;29.63;16.05;;;3.90;99.90;;;;;;5049436;28;20017;-53
2022/02/20 06:46:36;;;;;;;27.20;15.50;;;3.90;99.90;;;;;;5047572;28;20033;-53
2022/02/20 06:49:03;;;;;;;24.55;13.48;;;3.90;99.90;;;;;;5040926;28;20049;-54
2022/02/20 06:51:28;;;;;;;28.80;14.05;;;3.90;99.90;;;;;;5048269;28;20037;-60
2022/02/20 06:53:54;;;;;;;22.70;12.73;;;3.90;99.90;;;;;;5049032;28;20442;-55
2022/02/20 06:56:20;;;;;;;20.92;11.88;;;3.90;99.90;;;;;;5047857;28;20057;-60
2022/02/20 06:58:46;;;;;;;28.52;10.70;;;4.00;99.90;;;;;;5048739;28;20106;-59
2022/02/20 07:01:12;;;;;;;22.17;9.80;;;3.90;99.90;;;;;;5048374;28;20029;-58
2022/02/20 07:03:38;;;;;;;20.50;10.20;;;4.00;99.90;;;;;;5048234;28;20078;-52
2022/02/20 07:06:04;;;;;;;19.65;9.63;;;4.00;99.90;;;;;;5047438;28;20040;-54
2022/02/20 07:08:31;;;;;;;18.75;9.60;;;4.00;99.90;;;;;;5048969;28;20033;-61
2022/02/20 07:10:56;;;;;;;17.65;9.45;;;3.90;99.90;;;;;;5048257;28;20029;-61
2022/02/20 07:13:22;;;;;;;18.20;9.13;;;3.90;99.90;;;;;;5048993;28;20479;-55
2022/02/20 07:15:48;;;;;;;19.15;9.52;;;4.00;99.90;;;;;;5046960;28;20403;-52
2022/02/20 07:18:15;;;;;;;19.10;9.10;;;4.00;99.90;;;;;;5048559;28;20099;-54
2022/02/20 07:20:42;;;;;;;17.38;9.88;;;4.00;99.90;;;;;;5047842;28;20048;-56
2022/02/20 07:23:08;;;;;;;19.15;9.27;;;4.00;99.90;;;;;;5048848;28;20021;-53
2022/02/20 07:25:34;;;;;;;18.55;8.95;;;4.10;99.90;;;;;;5046763;28;20115;-54
2022/02/20 07:28:00;;;;;;;15.93;8.68;;;4.00;99.90;;;;;;5047890;28;20173;-53
2022/02/20 07:30:28;;;;;;;18.02;8.82;;;4.00;99.90;;;;;;5048816;28;20047;-55
2022/02/20 07:32:54;;;;;;;14.50;8.05;;;4.10;99.90;;;;;;5047545;28;20116;-56
2022/02/20 07:35:20;;;;;;;20.13;8.93;;;4.10;99.90;;;;;;5047991;28;20057;-53
2022/02/20 07:37:46;;;;;;;16.60;7.55;;;4.10;99.90;;;;;;5049737;28;20105;-54
2022/02/20 07:40:12;;;;;;;17.80;8.68;;;4.10;99.90;;;;;;5052316;28;20025;-53
2022/02/20 07:42:37;;;;;;;20.85;9.40;;;4.10;99.90;;;;;;5051046;28;20419;-57
2022/02/20 07:45:04;;;;;;;17.30;9.23;;;4.10;99.90;;;;;;5051540;28;20023;-59
2022/02/20 07:47:31;;;;;;;15.23;9.45;;;4.10;99.90;;;;;;5051297;28;20061;-54
2022/02/20 07:49:56;;;;;;;17.55;10.27;;;4.10;99.90;;;;;;5034617;28;20044;-54
2022/02/20 07:52:22;;;;;;;18.23;10.60;;;4.10;99.90;;;;;;5051698;28;20104;-55
2022/02/20 07:54:48;;;;;;;16.80;9.65;;;4.10;99.90;;;;;;5051707;28;20498;-56
2022/02/20 07:57:14;;;;;;;14.65;8.40;;;4.10;99.90;;;;;;5051582;28;20548;-55
2022/02/20 07:59:39;;;;;;;17.33;9.25;;;4.00;99.90;;;;;;5050794;28;20033;-55
2022/02/20 08:02:05;;;;;;;17.98;9.27;;;4.10;99.90;;;;;;5033060;28;20394;-52
2022/02/20 08:04:30;;;;;;;15.52;9.30;;;4.00;99.90;;;;;;5051364;28;20037;-61
2022/02/20 08:06:56;;;;;;;13.18;8.45;;;4.00;99.90;;;;;;5042220;28;20036;-51
2022/02/20 08:09:23;;;;;;;15.43;9.27;;;4.00;99.90;;;;;;5052104;28;20059;-54
2022/02/20 08:11:49;;;;;;;15.75;8.65;;;4.00;99.90;;;;;;5050542;28;20045;-56
2022/02/20 08:14:15;;;;;;;14.73;8.30;;;3.90;99.90;;;;;;5051405;28;20029;-56
2022/02/20 08:16:40;;;;;;;13.90;7.78;;;3.90;99.90;;;;;;5050328;28;20112;-54
2022/02/20 08:19:06;;;;;;;12.23;7.07;;;3.90;99.90;;;;;;5050955;28;20568;-54
2022/02/20 08:21:31;;;;;;;14.15;7.80;;;3.90;99.90;;;;;;5051712;28;20025;-56
2022/02/20 08:23:57;;;;;;;13.38;7.57;;;3.90;99.90;;;;;;5051316;28;20411;-59
2022/02/20 08:26:23;;;;;;;11.45;6.78;;;3.80;99.90;;;;;;5042660;28;20035;-61
2022/02/20 08:28:49;;;;;;;12.52;7.72;;;3.80;99.90;;;;;;5049443;28;20056;-61
2022/02/20 08:31:14;;;;;;;14.68;7.72;;;3.90;99.90;;;;;;5043140;28;20048;-61
2022/02/20 08:33:40;;;;;;;12.48;7.60;;;3.80;99.90;;;;;;5048655;28;20055;-59
2022/02/20 08:36:09;;;;;;;13.43;8.18;;;3.90;99.90;;;;;;5050478;28;20096;-60
2022/02/20 08:38:35;;;;;;;12.32;6.95;;;3.90;99.90;;;;;;5050091;28;20025;-61
2022/02/20 08:41:01;;;;;;;13.43;8.20;;;3.90;99.90;;;;;;5051009;28;20025;-63
2022/02/20 08:43:27;;;;;;;17.02;9.88;;;3.80;99.90;;;;;;5050010;28;20036;-60
2022/02/20 08:45:52;;;;;;;15.85;8.98;;;3.80;99.90;;;;;;5050001;28;20112;-59
2022/02/20 08:48:18;;;;;;;15.43;9.55;;;3.80;99.90;;;;;;5048782;28;20132;-60
2022/02/20 08:50:44;;;;;;;15.20;9.95;;;3.70;99.90;;;;;;5042569;28;20400;-60
2022/02/20 08:53:10;;;;;;;15.75;9.80;;;3.80;99.90;;;;;;5040602;28;20048;-61
2022/02/20 08:55:37;;;;;;;14.75;9.63;;;3.70;99.90;;;;;;5049816;28;20040;-60
2022/02/20 08:58:03;;;;;;;16.08;9.32;;;3.70;99.90;;;;;;5050098;28;20029;-63
2022/02/20 09:00:29;;;;;;;16.33;8.88;;;3.70;99.90;;;;;;5050678;28;20036;-59
2022/02/20 09:02:55;;;;;;;17.00;9.23;;;3.60;99.90;;;;;;5032366;28;20021;-64
2022/02/20 09:05:20;;;;;;;14.93;9.82;;;3.70;99.90;;;;;;5049933;28;20135;-65
2022/02/20 09:07:46;;;;;;;17.08;9.05;;;3.60;99.90;;;;;;5050323;28;20090;-64
2022/02/20 09:10:12;;;;;;;13.35;7.82;;;3.70;99.90;;;;;;5049872;28;20029;-65
2022/02/20 09:12:38;;;;;;;18.17;9.20;;;3.60;99.90;;;;;;5050431;28;20139;-65
2022/02/20 09:15:05;;;;;;;12.57;8.40;;;3.60;99.90;;;;;;5046664;28;20021;-64
2022/02/20 09:17:32;;;;;;;16.23;9.73;;;3.70;99.90;;;;;;5046596;28;20039;-63
2022/02/20 09:19:58;;;;;;;14.85;8.57;;;3.70;99.90;;;;;;5048566;28;20111;-64
2022/02/20 09:22:24;;;;;;;15.00;9.48;;;3.70;99.90;;;;;;5049886;28;20075;-64
2022/02/20 09:24:50;;;;;;;17.73;9.48;;;3.70;99.90;;;;;;5034612;28;20025;-61
2022/02/20 09:27:15;;;;;;;15.93;9.63;;;3.80;99.90;;;;;;5028048;28;20029;-62
2022/02/20 09:29:41;;;;;;;16.30;9.68;;;3.80;99.90;;;;;;5046467;28;20025;-60
2022/02/20 09:32:07;;;;;;;15.70;8.57;;;3.80;99.90;;;;;;5045688;28;20032;-62
2022/02/20 09:34:33;;;;;;;15.57;9.57;;;3.80;99.90;;;;;;5049124;28;20479;-62
2022/02/20 09:36:58;;;;;;;16.05;9.45;;;3.80;99.90;;;;;;5049274;28;20059;-62
2022/02/20 09:39:24;;;;;;;15.88;8.18;;;3.80;99.90;;;;;;5047270;28;20029;-61
2022/02/20 09:41:49;;;;;;;16.60;9.10;;;3.70;99.90;;;;;;5049526;28;20021;-63
2022/02/20 09:44:15;;;;;;;15.18;8.65;;;3.70;99.90;;;;;;5049861;28;20063;-64
2022/02/20 09:46:43;;;;;;;16.70;9.55;;;3.60;99.90;;;;;;5047749;28;20056;-53
2022/02/20 09:49:09;;;;;;;14.93;8.88;;;3.60;99.90;;;;;;5031826;28;20025;-65
2022/02/20 09:51:35;;;;;;;18.02;10.32;;;3.60;99.90;;;;;;5048887;28;20039;-55
2022/02/20 09:54:01;;;;;;;14.65;8.77;;;3.60;99.90;;;;;;5041954;28;20017;-55
2022/02/20 09:56:27;;;;;;;14.63;8.63;;;3.60;99.90;;;;;;5048326;28;20021;-57
2022/02/20 09:58:56;;;;;;;12.45;7.18;;;3.50;99.90;;;;;;5041179;28;20477;-55
2022/02/20 10:01:21;;;;;;;10.18;5.82;;;3.50;99.90;;;;;;5048779;28;20020;-53
2022/02/20 10:03:49;;;;;;;14.52;8.43;;;3.50;99.90;;;;;;5043181;28;20038;-56
2022/02/20 10:06:19;;;;;;;12.95;8.10;;;3.50;99.90;;;;;;5038844;28;20147;-58
2022/02/20 10:08:57;;;;;;;13.45;8.27;;;3.50;99.90;;;;;;5025433;28;20033;-60
2022/02/20 10:11:25;;;;;;;14.48;7.55;;;3.50;99.90;;;;;;5044099;28;20056;-56
2022/02/20 10:14:12;;;;;;;11.38;6.63;;;3.50;99.90;;;;;;5037957;28;20028;-58
2022/02/20 10:16:38;;;;;;;11.43;6.35;;;3.40;99.90;;;;;;5047344;28;20025;-59
2022/02/20 10:19:04;;;;;;;12.27;6.25;;;3.40;99.90;;;;;;5040971;28;20095;-55
2022/02/20 10:21:32;;;;;;;12.90;6.25;;;3.40;99.90;;;;;;5045222;28;20021;-59
2022/02/20 10:24:10;;;;;;;8.00;5.00;;;3.40;99.90;;;;;;5049504;28;20024;-57
2022/02/20 10:26:47;;;;;;;11.85;6.43;;;3.40;99.90;;;;;;5044842;28;20519;-59
2022/02/20 10:29:18;;;;;;;11.70;6.60;;;3.40;99.90;;;;;;5034723;28;20033;-61
2022/02/20 10:31:50;;;;;;;10.48;7.07;;;3.50;99.90;;;;;;5047439;28;20075;-55
2022/02/20 10:34:20;;;;;;;13.13;8.00;;;3.50;99.90;;;;;;5049344;28;20044;-56
2022/02/20 10:36:55;;;;;;;11.48;6.72;;;3.60;99.90;;;;;;5045873;28;20033;-61
2022/02/20 10:39:26;;;;;;;9.95;6.07;;;3.60;99.90;;;;;;5047666;28;20112;-63
2022/02/20 10:41:53;;;;;;;9.20;5.65;;;3.60;99.90;;;;;;5046118;28;20097;-64
2022/02/20 10:44:19;;;;;;;10.68;5.60;;;3.70;99.90;;;;;;5031216;28;20522;-60
2022/02/20 10:46:45;;;;;;;9.15;5.15;;;3.70;99.90;;;;;;5047300;28;20452;-58
2022/02/20 10:49:31;;;;;;;10.77;6.15;;;3.60;99.90;;;;;;5051026;28;20025;-63
2022/02/20 10:51:57;;;;;;;8.32;5.90;;;3.70;99.90;;;;;;5046896;28;20044;-57
2022/02/20 10:54:23;;;;;;;7.90;5.45;;;3.70;99.90;;;;;;5048181;28;20060;-57
2022/02/20 10:56:50;;;;;;;9.00;5.63;;;3.70;99.90;;;;;;5046676;28;20072;-56
2022/02/20 10:59:19;;;;;;;9.50;5.93;;;3.80;99.90;;;;;;5048656;28;20036;-57
2022/02/20 11:01:44;;;;;;;9.13;5.43;;;3.80;99.90;;;;;;5048807;28;20030;-57
2022/02/20 11:04:11;;;;;;;13.43;4.85;;;3.80;99.90;;;;;;5050122;28;20111;-57
2022/02/20 11:06:38;;;;;;;10.20;5.97;;;3.80;99.90;;;;;;5042881;28;20118;-60
2022/02/20 11:09:04;;;;;;;11.98;5.95;;;3.90;99.90;;;;;;5038553;28;20060;-58
2022/02/20 11:11:42;;;;;;;13.52;6.70;;;3.90;99.90;;;;;;5047085;28;20403;-58
2022/02/20 11:14:16;;;;;;;10.23;6.10;;;3.90;99.90;;;;;;5051219;28;20398;-61
2022/02/20 11:16:53;;;;;;;11.57;6.82;;;4.00;99.90;;;;;;5050492;28;20063;-60
2022/02/20 11:19:22;;;;;;;11.70;6.53;;;4.10;99.90;;;;;;5051208;28;20052;-60
2022/02/20 11:21:52;;;;;;;10.27;6.68;;;4.10;99.90;;;;;;5050668;28;20495;-57
2022/02/20 11:24:19;;;;;;;14.10;7.15;;;4.20;99.90;;;;;;5052763;28;20048;-58
2022/02/20 11:26:46;;;;;;;11.88;7.22;;;4.20;99.90;;;;;;5051760;28;20029;-57
2022/02/20 11:29:12;;;;;;;14.10;8.05;;;4.30;99.90;;;;;;5053294;28;20029;-62
2022/02/20 11:31:40;;;;;;;11.93;6.95;;;4.30;99.90;;;;;;5052666;28;20025;-57
2022/02/20 11:34:07;;;;;;;14.63;8.52;;;4.40;99.90;;;;;;5052570;28;20037;-61
2022/02/20 11:36:33;;;;;;;17.25;8.98;;;4.40;99.90;;;;;;5051489;28;20386;-62
2022/02/20 11:39:14;;;;;;;12.77;7.78;;;4.40;99.90;;;;;;5053056;28;20033;-60
2022/02/20 11:42:01;;;;;;;14.63;9.05;;;4.50;99.90;;;;;;5051957;28;20021;-60
2022/02/20 11:44:27;;;;;;;16.85;8.20;;;4.60;99.90;;;;;;5052024;28;20029;-60
2022/02/20 11:46:54;;;;;;;14.15;8.20;;;4.70;99.90;;;;;;5045048;28;20035;-58
2022/02/20 11:49:26;;;;;;;11.35;6.93;;;4.80;99.90;;;;;;5052250;28;20036;-55
2022/02/20 11:51:58;;;;;;;12.15;7.13;;;5.10;99.90;;;;;;5052411;28;20121;-54
2022/02/20 11:54:24;;;;;;;15.82;7.75;;;5.30;99.90;;;;;;5052223;28;20017;-61
2022/02/20 11:57:11;;;;;;;13.13;7.70;;;5.30;99.90;;;;;;5051738;28;20124;-57
2022/02/20 11:59:38;;;;;;;11.10;8.57;;;5.40;99.90;;;;;;5051756;28;20021;-54
2022/02/20 12:02:12;;;;;;;15.90;10.00;;;5.50;99.90;;;;;;5052160;28;20045;-53
2022/02/20 12:04:50;;;;;;;16.83;10.13;;;5.60;99.90;;;;;;5048602;28;20056;-52
2022/02/20 12:07:42;;;;;;;16.45;9.10;;;5.70;99.90;;;;;;5052208;28;20340;-56
2022/02/20 12:10:24;;;;;;;12.60;8.15;;;5.80;99.90;;;;;;5052472;28;20124;-55
2022/02/20 12:12:55;;;;;;;15.93;8.98;;;5.90;99.90;;;;;;5033838;28;20386;-56
2022/02/20 12:15:37;;;;;;;19.80;8.67;;;5.90;99.90;;;;;;5050871;28;20079;-55
2022/02/20 12:18:12;;;;;;;16.17;8.27;;;6.00;99.90;;;;;;5052157;28;20629;-54
2022/02/20 12:20:53;;;;;;;14.30;8.38;;;6.00;99.90;;;;;;5051211;28;20024;-55
2022/02/20 12:23:48;;;;;;;12.40;8.57;;;6.00;99.90;;;;;;5050480;28;20029;-56
2022/02/20 12:26:47;;;;;;;17.38;9.07;;;6.10;99.90;;;;;;5047658;28;20029;-54
2022/02/20 12:29:15;;;;;;;16.13;9.68;;;6.20;99.90;;;;;;5035612;28;20025;-56
2022/02/20 12:32:03;;;;;;;15.30;10.10;;;6.30;99.90;;;;;;5050770;28;20158;-57
2022/02/20 12:34:59;;;;;;;19.83;11.15;;;6.40;99.90;;;;;;5049540;28;20037;-52
2022/02/20 12:37:51;;;;;;;15.70;10.43;;;6.40;99.90;;;;;;5043771;28;20039;-55
2022/02/20 12:40:27;;;;;;;22.50;11.50;;;6.40;99.90;;;;;;5032554;28;20039;-59
2022/02/20 12:43:07;;;;;;;14.95;10.50;;;6.50;99.90;;;;;;5030213;28;20601;-58
2022/02/20 12:45:40;;;;;;;16.38;9.93;;;6.60;99.90;;;;;;5029327;28;20158;-57
2022/02/20 12:48:08;;;;;;;16.20;10.10;;;6.70;99.90;;;;;;5030225;28;20037;-54